Raven, VA (24639)

11:20 AM EST on February 12, 2016 (GMT -0500)
Oakwood, VA | | Change Station
CLOSE
Current Station
Personal Weather Station
Location: Oakwood, VA
Elevation: 1404 ft
Nearby Weather Stations
Active Advisory: Winter Weather Advisory

Elev 1404 ft 37.21 °N, 82.01 °W | Updated 1 minute ago

Overcast
Overcast
29.5 °F
Feels Like 30 °F
N
2.2
Wind Variable Wind from SW

Today
High -- | Low -- °F
--% Chance of Precip.
Yesterday
High -- | Low -- °F
Precip. -- in
Pressure 30.03 in
Visibility 1.8 miles
Clouds Scattered Clouds 700 ft
Mostly Cloudy 1800 ft
Overcast 2600 ft
Windchill 30 °F
Dew Point 24 °F
Humidity 78%
Rainfall 0.00 in
Snow Depth Not available.
7:21 AM 6:04 PM
Waxing Crescent, 21% visible
METAR KJFZ 121555Z AUTO 00000KT 1 3/4SM -SN SCT007 BKN018 OVC026 M04/M06 A3003 RMK AO2 T10361063
Pressure 30.03 in
Visibility 1.8 miles
Clouds Scattered Clouds 700 ft
Mostly Cloudy 1800 ft
Overcast 2600 ft
Windchill 30 °F
Dew Point 24 °F
Humidity 78%
Rainfall 0.00 in
Snow Depth Not available.
7:21 AM 6:04 PM
Waxing Crescent, 21% visible
METAR KJFZ 121555Z AUTO 00000KT 1 3/4SM -SN SCT007 BKN018 OVC026 M04/M06 A3003 RMK AO2 T10361063

10-Day Weather Forecast

Almanac

Astronomy

Feb. 12, 2016 Rise Set
Actual Time
Civil Twilight
Nautical Twilight
Astronomical Twilight
Moon
Length of Visible Light
Length of Day
Tomorrow will be .
, % of the Moon is Illuminated

Today's Extremes

State Highs State Lows

Community

WunderPhotos

Upload Photos

1,892,345 photos uploaded!

WunderBlog® & News

Nearby

Air Quality

  Air Quality AQ Index Pollutant
Not available.

Snow Depth

Station Depth Elevation

Earthquake Activity

City Distance Mag. Time & Date
Minimum magnitude displayed is 2.5.

Coastal Water Temperatures

Place Temperature

Stations

Nearby Weather Stations

Station Location Temp. Windchill Dew Point Humidity Wind Precip. Elev Updated Type
                   

Watches & Warnings

Winter Weather Advisory
Issued: 10:27 AM EST Feb. 12, 2016 – National Weather Service

... Winter Weather Advisory remains in effect until 4 PM EST this
afternoon...

* hazard... snow

* snow accumulations... 1 to 2 inches.

* Timing... light snow will overspread the area this morning and
taper off by 4 PM.

* Impacts... untreated roads may become snow covered and
hazardous to travel.

* Temperatures... in the mid to upper 20s.

Precautionary/preparedness actions...

A Winter Weather Advisory for snow means that periods of snow
will cause primarily travel difficulties. Be prepared for snow
covered roads and limited visibilities... and use caution while
driving.